Glenview, Kentucky
Current Conditions -  °F | °C
As of 5:53 AM on Friday 31 Oct 2014 (Local Time) from KLOU Reporting Station
Light Rain Light Rain  
Wind Chill: 47°   Ceiling: 5000
Heat Index: 47°   Visibility: 7mi
Dew Point: 44°   Wind: 0mph
Humidity: 90%   Direction: NA
Pressure: 30"   Gusts: NA
Location:  38.31°N, 85.65°W
Report Text: KLOU 310953Z AUTO 00000KT 7SM -RA FEW038 OVC050 08/07 A3000 RMK AO2 RAE17B52 SLP160 P0000 T00830067
Loading
Personal Weather Stations






























Interactive Weather Map
Tropical Storm Tracking
New forecast layout! Learn more

10-Day Weather Forecast

Advertisements
Track Severe Weather on mobile